sensor_id;sensor_type;location;lat;lon;timestamp;P1;durP1;ratioP1;P2;durP2;ratioP2
40637;SDS011;26336;44.696;10.622;2023-02-15T00:02:34;68.20;;;34.10;;
40637;SDS011;26336;44.696;10.622;2023-02-15T00:05:39;64.07;;;33.07;;
40637;SDS011;26336;44.696;10.622;2023-02-15T00:08:43;67.17;;;34.63;;
40637;SDS011;26336;44.696;10.622;2023-02-15T00:11:47;67.63;;;34.70;;
40637;SDS011;26336;44.696;10.622;2023-02-15T00:14:53;64.60;;;32.03;;
40637;SDS011;26336;44.696;10.622;2023-02-15T00:17:57;61.80;;;31.13;;
40637;SDS011;26336;44.696;10.622;2023-02-15T00:21:05;66.13;;;33.30;;
40637;SDS011;26336;44.696;10.622;2023-02-15T00:24:11;66.50;;;33.33;;
40637;SDS011;26336;44.696;10.622;2023-02-15T00:27:16;64.00;;;33.07;;
40637;SDS011;26336;44.696;10.622;2023-02-15T00:30:20;63.13;;;32.33;;
40637;SDS011;26336;44.696;10.622;2023-02-15T00:33:23;66.43;;;32.67;;
40637;SDS011;26336;44.696;10.622;2023-02-15T00:36:29;68.97;;;33.77;;
40637;SDS011;26336;44.696;10.622;2023-02-15T00:39:35;66.80;;;32.73;;
40637;SDS011;26336;44.696;10.622;2023-02-15T00:42:39;62.27;;;31.83;;
40637;SDS011;26336;44.696;10.622;2023-02-15T00:45:45;64.43;;;32.57;;
40637;SDS011;26336;44.696;10.622;2023-02-15T00:48:49;63.93;;;30.53;;
40637;SDS011;26336;44.696;10.622;2023-02-15T00:51:53;66.80;;;31.63;;
40637;SDS011;26336;44.696;10.622;2023-02-15T00:54:57;64.63;;;33.47;;
40637;SDS011;26336;44.696;10.622;2023-02-15T00:58:00;64.43;;;33.57;;
40637;SDS011;26336;44.696;10.622;2023-02-15T01:01:06;65.57;;;33.53;;
40637;SDS011;26336;44.696;10.622;2023-02-15T01:04:12;63.47;;;32.43;;
40637;SDS011;26336;44.696;10.622;2023-02-15T01:07:16;63.30;;;33.53;;
40637;SDS011;26336;44.696;10.622;2023-02-15T01:10:19;69.67;;;34.20;;
40637;SDS011;26336;44.696;10.622;2023-02-15T01:13:24;63.67;;;33.03;;
40637;SDS011;26336;44.696;10.622;2023-02-15T01:16:28;64.10;;;33.30;;
40637;SDS011;26336;44.696;10.622;2023-02-15T01:19:32;63.13;;;32.77;;
40637;SDS011;26336;44.696;10.622;2023-02-15T01:22:36;66.23;;;33.03;;
40637;SDS011;26336;44.696;10.622;2023-02-15T01:29:05;62.97;;;32.07;;
40637;SDS011;26336;44.696;10.622;2023-02-15T01:32:08;64.43;;;32.00;;
40637;SDS011;26336;44.696;10.622;2023-02-15T01:35:13;64.63;;;32.50;;
40637;SDS011;26336;44.696;10.622;2023-02-15T01:38:17;62.10;;;31.70;;
40637;SDS011;26336;44.696;10.622;2023-02-15T01:41:21;64.57;;;33.90;;
40637;SDS011;26336;44.696;10.622;2023-02-15T01:48:22;63.77;;;33.20;;
40637;SDS011;26336;44.696;10.622;2023-02-15T01:51:31;60.73;;;31.00;;
40637;SDS011;26336;44.696;10.622;2023-02-15T01:54:41;63.43;;;30.47;;
40637;SDS011;26336;44.696;10.622;2023-02-15T01:57:48;64.20;;;32.40;;
40637;SDS011;26336;44.696;10.622;2023-02-15T02:00:53;60.53;;;31.03;;
40637;SDS011;26336;44.696;10.622;2023-02-15T02:07:41;66.90;;;31.87;;
40637;SDS011;26336;44.696;10.622;2023-02-15T02:10:47;64.10;;;33.07;;
40637;SDS011;26336;44.696;10.622;2023-02-15T02:13:51;62.30;;;31.33;;
40637;SDS011;26336;44.696;10.622;2023-02-15T02:17:02;61.30;;;31.50;;
40637;SDS011;26336;44.696;10.622;2023-02-15T02:23:44;60.70;;;30.73;;
40637;SDS011;26336;44.696;10.622;2023-02-15T02:27:22;58.00;;;30.37;;
40637;SDS011;26336;44.696;10.622;2023-02-15T02:40:55;55.50;;;28.43;;
40637;SDS011;26336;44.696;10.622;2023-02-15T02:44:07;59.80;;;31.03;;
40637;SDS011;26336;44.696;10.622;2023-02-15T02:50:22;61.53;;;30.67;;
40637;SDS011;26336;44.696;10.622;2023-02-15T02:53:31;58.73;;;28.83;;
40637;SDS011;26336;44.696;10.622;2023-02-15T02:56:37;61.50;;;29.83;;
40637;SDS011;26336;44.696;10.622;2023-02-15T02:59:45;58.67;;;29.83;;
40637;SDS011;26336;44.696;10.622;2023-02-15T03:02:51;61.43;;;29.93;;
40637;SDS011;26336;44.696;10.622;2023-02-15T03:06:03;59.50;;;29.57;;
40637;SDS011;26336;44.696;10.622;2023-02-15T03:09:59;62.10;;;29.53;;
40637;SDS011;26336;44.696;10.622;2023-02-15T03:12:47;59.67;;;30.97;;
40637;SDS011;26336;44.696;10.622;2023-02-15T03:15:51;59.13;;;29.07;;
40637;SDS011;26336;44.696;10.622;2023-02-15T03:22:23;61.57;;;28.43;;
40637;SDS011;26336;44.696;10.622;2023-02-15T03:25:34;60.97;;;29.80;;
40637;SDS011;26336;44.696;10.622;2023-02-15T03:28:45;61.10;;;28.53;;
40637;SDS011;26336;44.696;10.622;2023-02-15T03:31:56;57.73;;;29.23;;
40637;SDS011;26336;44.696;10.622;2023-02-15T03:35:03;51.00;;;26.67;;
40637;SDS011;26336;44.696;10.622;2023-02-15T03:38:08;59.07;;;28.70;;
40637;SDS011;26336;44.696;10.622;2023-02-15T03:41:17;61.63;;;30.03;;
40637;SDS011;26336;44.696;10.622;2023-02-15T03:44:25;54.10;;;28.30;;
40637;SDS011;26336;44.696;10.622;2023-02-15T03:47:31;60.50;;;28.67;;
40637;SDS011;26336;44.696;10.622;2023-02-15T03:50:39;55.27;;;26.90;;
40637;SDS011;26336;44.696;10.622;2023-02-15T03:54:07;55.57;;;26.57;;
40637;SDS011;26336;44.696;10.622;2023-02-15T04:00:57;50.85;;;26.17;;
40637;SDS011;26336;44.696;10.622;2023-02-15T04:04:22;54.43;;;25.80;;
40637;SDS011;26336;44.696;10.622;2023-02-15T04:07:30;57.70;;;28.10;;
40637;SDS011;26336;44.696;10.622;2023-02-15T04:10:34;53.83;;;26.53;;
40637;SDS011;26336;44.696;10.622;2023-02-15T04:13:58;55.97;;;28.10;;
40637;SDS011;26336;44.696;10.622;2023-02-15T04:17:05;61.70;;;28.27;;
40637;SDS011;26336;44.696;10.622;2023-02-15T04:20:10;55.87;;;26.70;;
40637;SDS011;26336;44.696;10.622;2023-02-15T04:23:32;57.33;;;26.83;;
40637;SDS011;26336;44.696;10.622;2023-02-15T04:26:55;58.28;;;28.13;;
40637;SDS011;26336;44.696;10.622;2023-02-15T04:29:59;56.80;;;27.07;;
40637;SDS011;26336;44.696;10.622;2023-02-15T04:33:03;53.67;;;26.37;;
40637;SDS011;26336;44.696;10.622;2023-02-15T04:36:07;58.87;;;27.90;;
40637;SDS011;26336;44.696;10.622;2023-02-15T04:39:12;51.93;;;27.07;;
40637;SDS011;26336;44.696;10.622;2023-02-15T04:42:17;56.07;;;26.70;;
40637;SDS011;26336;44.696;10.622;2023-02-15T04:45:21;54.43;;;28.20;;
40637;SDS011;26336;44.696;10.622;2023-02-15T04:48:26;60.73;;;29.90;;
40637;SDS011;26336;44.696;10.622;2023-02-15T04:51:30;62.83;;;28.63;;
40637;SDS011;26336;44.696;10.622;2023-02-15T04:54:34;56.73;;;28.90;;
40637;SDS011;26336;44.696;10.622;2023-02-15T04:57:38;57.97;;;28.77;;
40637;SDS011;26336;44.696;10.622;2023-02-15T05:00:42;59.30;;;27.97;;
40637;SDS011;26336;44.696;10.622;2023-02-15T05:03:46;56.83;;;28.20;;
40637;SDS011;26336;44.696;10.622;2023-02-15T05:06:49;57.43;;;29.10;;
40637;SDS011;26336;44.696;10.622;2023-02-15T05:09:53;55.07;;;27.20;;
40637;SDS011;26336;44.696;10.622;2023-02-15T05:12:57;56.77;;;28.07;;
40637;SDS011;26336;44.696;10.622;2023-02-15T05:16:04;61.40;;;27.43;;
40637;SDS011;26336;44.696;10.622;2023-02-15T05:19:08;56.43;;;28.33;;
40637;SDS011;26336;44.696;10.622;2023-02-15T05:22:12;52.60;;;27.23;;
40637;SDS011;26336;44.696;10.622;2023-02-15T05:25:16;54.77;;;27.70;;
40637;SDS011;26336;44.696;10.622;2023-02-15T05:28:38;59.83;;;29.20;;
40637;SDS011;26336;44.696;10.622;2023-02-15T05:31:42;58.13;;;28.20;;
40637;SDS011;26336;44.696;10.622;2023-02-15T05:34:50;56.53;;;28.67;;
40637;SDS011;26336;44.696;10.622;2023-02-15T05:37:54;58.50;;;27.87;;
40637;SDS011;26336;44.696;10.622;2023-02-15T05:40:58;54.63;;;28.30;;
40637;SDS011;26336;44.696;10.622;2023-02-15T05:44:01;56.10;;;27.63;;
40637;SDS011;26336;44.696;10.622;2023-02-15T05:47:05;54.97;;;27.87;;
40637;SDS011;26336;44.696;10.622;2023-02-15T05:50:10;58.33;;;28.40;;
40637;SDS011;26336;44.696;10.622;2023-02-15T05:53:14;52.47;;;27.53;;
40637;SDS011;26336;44.696;10.622;2023-02-15T05:56:18;56.73;;;27.33;;
40637;SDS011;26336;44.696;10.622;2023-02-15T05:59:22;57.77;;;28.40;;
40637;SDS011;26336;44.696;10.622;2023-02-15T06:02:26;59.47;;;27.67;;
40637;SDS011;26336;44.696;10.622;2023-02-15T06:05:30;55.67;;;25.70;;
40637;SDS011;26336;44.696;10.622;2023-02-15T06:08:34;48.03;;;25.87;;
40637;SDS011;26336;44.696;10.622;2023-02-15T06:11:39;50.33;;;25.57;;
40637;SDS011;26336;44.696;10.622;2023-02-15T06:14:44;58.03;;;27.10;;
40637;SDS011;26336;44.696;10.622;2023-02-15T06:17:48;52.60;;;25.43;;
40637;SDS011;26336;44.696;10.622;2023-02-15T06:20:52;51.23;;;24.97;;
40637;SDS011;26336;44.696;10.622;2023-02-15T06:23:57;58.10;;;27.00;;
40637;SDS011;26336;44.696;10.622;2023-02-15T06:27:00;52.17;;;25.50;;
40637;SDS011;26336;44.696;10.622;2023-02-15T06:30:04;54.67;;;27.10;;
40637;SDS011;26336;44.696;10.622;2023-02-15T06:33:09;56.53;;;27.87;;
40637;SDS011;26336;44.696;10.622;2023-02-15T06:36:13;55.47;;;25.07;;
40637;SDS011;26336;44.696;10.622;2023-02-15T06:39:17;50.00;;;27.37;;
40637;SDS011;26336;44.696;10.622;2023-02-15T06:42:21;52.83;;;24.70;;
40637;SDS011;26336;44.696;10.622;2023-02-15T06:45:26;53.30;;;25.93;;
40637;SDS011;26336;44.696;10.622;2023-02-15T06:48:29;46.13;;;23.53;;
40637;SDS011;26336;44.696;10.622;2023-02-15T06:51:33;53.83;;;27.77;;
40637;SDS011;26336;44.696;10.622;2023-02-15T06:54:40;53.57;;;25.97;;
40637;SDS011;26336;44.696;10.622;2023-02-15T06:57:44;58.47;;;26.47;;
40637;SDS011;26336;44.696;10.622;2023-02-15T07:00:48;54.47;;;27.93;;
40637;SDS011;26336;44.696;10.622;2023-02-15T07:03:52;54.20;;;25.47;;
40637;SDS011;26336;44.696;10.622;2023-02-15T07:06:56;60.80;;;28.87;;
40637;SDS011;26336;44.696;10.622;2023-02-15T07:10:00;58.73;;;27.17;;
40637;SDS011;26336;44.696;10.622;2023-02-15T07:13:04;55.60;;;26.03;;
40637;SDS011;26336;44.696;10.622;2023-02-15T07:16:08;61.90;;;28.93;;
40637;SDS011;26336;44.696;10.622;2023-02-15T07:19:15;56.23;;;28.63;;
40637;SDS011;26336;44.696;10.622;2023-02-15T07:22:19;63.43;;;30.97;;
40637;SDS011;26336;44.696;10.622;2023-02-15T07:25:24;57.73;;;31.13;;
40637;SDS011;26336;44.696;10.622;2023-02-15T07:28:32;62.63;;;31.07;;
40637;SDS011;26336;44.696;10.622;2023-02-15T07:31:37;62.77;;;32.67;;
40637;SDS011;26336;44.696;10.622;2023-02-15T07:34:41;61.13;;;33.20;;
40637;SDS011;26336;44.696;10.622;2023-02-15T07:37:47;61.20;;;32.87;;
40637;SDS011;26336;44.696;10.622;2023-02-15T07:40:51;62.10;;;31.10;;
40637;SDS011;26336;44.696;10.622;2023-02-15T07:44:00;63.73;;;33.57;;
40637;SDS011;26336;44.696;10.622;2023-02-15T07:47:05;63.33;;;32.33;;
40637;SDS011;26336;44.696;10.622;2023-02-15T07:50:08;61.70;;;30.33;;
40637;SDS011;26336;44.696;10.622;2023-02-15T07:53:12;51.70;;;28.63;;
40637;SDS011;26336;44.696;10.622;2023-02-15T07:56:19;54.37;;;26.80;;
40637;SDS011;26336;44.696;10.622;2023-02-15T07:59:23;50.47;;;26.60;;
40637;SDS011;26336;44.696;10.622;2023-02-15T08:02:30;54.50;;;25.73;;
40637;SDS011;26336;44.696;10.622;2023-02-15T08:05:34;51.73;;;25.07;;
40637;SDS011;26336;44.696;10.622;2023-02-15T08:08:39;51.23;;;26.90;;
40637;SDS011;26336;44.696;10.622;2023-02-15T08:11:44;48.93;;;24.37;;
40637;SDS011;26336;44.696;10.622;2023-02-15T08:14:51;46.67;;;23.53;;
40637;SDS011;26336;44.696;10.622;2023-02-15T08:17:55;44.33;;;21.83;;
40637;SDS011;26336;44.696;10.622;2023-02-15T08:21:01;41.50;;;22.20;;
40637;SDS011;26336;44.696;10.622;2023-02-15T08:24:07;41.07;;;21.80;;
40637;SDS011;26336;44.696;10.622;2023-02-15T08:27:12;43.50;;;20.13;;
40637;SDS011;26336;44.696;10.622;2023-02-15T08:30:16;42.67;;;21.50;;
40637;SDS011;26336;44.696;10.622;2023-02-15T08:33:20;39.93;;;20.03;;
40637;SDS011;26336;44.696;10.622;2023-02-15T08:36:26;36.37;;;19.23;;
40637;SDS011;26336;44.696;10.622;2023-02-15T08:39:32;39.07;;;19.53;;
40637;SDS011;26336;44.696;10.622;2023-02-15T08:42:35;36.10;;;19.50;;
40637;SDS011;26336;44.696;10.622;2023-02-15T08:45:40;32.83;;;16.80;;
40637;SDS011;26336;44.696;10.622;2023-02-15T08:48:44;34.03;;;18.37;;
40637;SDS011;26336;44.696;10.622;2023-02-15T08:51:49;30.67;;;15.30;;
40637;SDS011;26336;44.696;10.622;2023-02-15T08:54:53;32.83;;;17.37;;
40637;SDS011;26336;44.696;10.622;2023-02-15T08:57:58;30.17;;;15.10;;
40637;SDS011;26336;44.696;10.622;2023-02-15T09:01:12;29.70;;;14.07;;
40637;SDS011;26336;44.696;10.622;2023-02-15T09:04:21;29.50;;;15.70;;
40637;SDS011;26336;44.696;10.622;2023-02-15T09:07:26;33.27;;;15.57;;
40637;SDS011;26336;44.696;10.622;2023-02-15T09:10:29;32.10;;;16.20;;
40637;SDS011;26336;44.696;10.622;2023-02-15T09:13:33;34.13;;;16.50;;
40637;SDS011;26336;44.696;10.622;2023-02-15T09:16:38;32.27;;;16.10;;
40637;SDS011;26336;44.696;10.622;2023-02-15T09:19:43;29.00;;;15.43;;
40637;SDS011;26336;44.696;10.622;2023-02-15T09:22:46;26.70;;;14.73;;
40637;SDS011;26336;44.696;10.622;2023-02-15T09:25:50;31.33;;;15.63;;
40637;SDS011;26336;44.696;10.622;2023-02-15T09:28:55;32.03;;;15.80;;
40637;SDS011;26336;44.696;10.622;2023-02-15T09:32:02;28.37;;;15.53;;
40637;SDS011;26336;44.696;10.622;2023-02-15T09:35:06;31.03;;;16.77;;
40637;SDS011;26336;44.696;10.622;2023-02-15T09:38:10;34.70;;;17.30;;
40637;SDS011;26336;44.696;10.622;2023-02-15T09:48:41;44.53;;;23.33;;
40637;SDS011;26336;44.696;10.622;2023-02-15T09:51:50;45.87;;;21.30;;
40637;SDS011;26336;44.696;10.622;2023-02-15T10:01:39;49.33;;;23.92;;
40637;SDS011;26336;44.696;10.622;2023-02-15T10:05:08;50.90;;;24.88;;
40637;SDS011;26336;44.696;10.622;2023-02-15T10:18:53;51.75;;;28.27;;
40637;SDS011;26336;44.696;10.622;2023-02-15T10:22:03;47.37;;;25.37;;
40637;SDS011;26336;44.696;10.622;2023-02-15T10:38:35;56.50;;;29.83;;
40637;SDS011;26336;44.696;10.622;2023-02-15T10:55:55;59.50;;;31.03;;
40637;SDS011;26336;44.696;10.622;2023-02-15T11:06:07;70.33;;;35.63;;
40637;SDS011;26336;44.696;10.622;2023-02-15T11:09:18;65.77;;;32.87;;
40637;SDS011;26336;44.696;10.622;2023-02-15T11:12:25;60.57;;;30.53;;
40637;SDS011;26336;44.696;10.622;2023-02-15T11:19:11;63.17;;;33.00;;
40637;SDS011;26336;44.696;10.622;2023-02-15T11:22:21;67.67;;;34.30;;
40637;SDS011;26336;44.696;10.622;2023-02-15T11:25:35;67.00;;;33.23;;
40637;SDS011;26336;44.696;10.622;2023-02-15T11:28:45;64.20;;;32.13;;
40637;SDS011;26336;44.696;10.622;2023-02-15T11:31:55;59.92;;;30.58;;
40637;SDS011;26336;44.696;10.622;2023-02-15T11:38:21;71.55;;;34.28;;
40637;SDS011;26336;44.696;10.622;2023-02-15T11:41:29;65.30;;;32.80;;
40637;SDS011;26336;44.696;10.622;2023-02-15T11:44:58;67.95;;;33.38;;
40637;SDS011;26336;44.696;10.622;2023-02-15T11:48:11;71.63;;;36.05;;
40637;SDS011;26336;44.696;10.622;2023-02-15T11:51:20;68.28;;;32.58;;
40637;SDS011;26336;44.696;10.622;2023-02-15T11:54:30;72.85;;;34.65;;
40637;SDS011;26336;44.696;10.622;2023-02-15T11:57:37;71.75;;;34.30;;
40637;SDS011;26336;44.696;10.622;2023-02-15T12:00:47;62.22;;;32.28;;
40637;SDS011;26336;44.696;10.622;2023-02-15T12:10:43;69.82;;;37.88;;
40637;SDS011;26336;44.696;10.622;2023-02-15T12:14:03;68.85;;;33.88;;
40637;SDS011;26336;44.696;10.622;2023-02-15T12:17:12;72.75;;;34.80;;
40637;SDS011;26336;44.696;10.622;2023-02-15T12:23:24;65.88;;;33.35;;
40637;SDS011;26336;44.696;10.622;2023-02-15T12:26:34;65.43;;;34.08;;
40637;SDS011;26336;44.696;10.622;2023-02-15T12:29:41;69.28;;;35.08;;
40637;SDS011;26336;44.696;10.622;2023-02-15T12:32:54;65.78;;;34.72;;
40637;SDS011;26336;44.696;10.622;2023-02-15T12:36:04;69.43;;;34.85;;
40637;SDS011;26336;44.696;10.622;2023-02-15T12:42:25;68.88;;;34.13;;
40637;SDS011;26336;44.696;10.622;2023-02-15T12:45:33;72.72;;;37.20;;
40637;SDS011;26336;44.696;10.622;2023-02-15T12:48:39;74.90;;;35.97;;
40637;SDS011;26336;44.696;10.622;2023-02-15T12:51:50;67.00;;;33.83;;
40637;SDS011;26336;44.696;10.622;2023-02-15T12:54:55;78.35;;;37.72;;
40637;SDS011;26336;44.696;10.622;2023-02-15T12:58:35;72.80;;;35.92;;
40637;SDS011;26336;44.696;10.622;2023-02-15T13:01:41;64.60;;;33.03;;
40637;SDS011;26336;44.696;10.622;2023-02-15T13:04:49;77.63;;;35.22;;
40637;SDS011;26336;44.696;10.622;2023-02-15T13:07:58;71.22;;;35.15;;
40637;SDS011;26336;44.696;10.622;2023-02-15T13:11:26;71.40;;;33.35;;
40637;SDS011;26336;44.696;10.622;2023-02-15T13:14:38;51.20;;;26.83;;
40637;SDS011;26336;44.696;10.622;2023-02-15T13:17:49;66.18;;;32.08;;
40637;SDS011;26336;44.696;10.622;2023-02-15T13:20:53;56.92;;;28.08;;
40637;SDS011;26336;44.696;10.622;2023-02-15T13:24:05;46.45;;;24.52;;
40637;SDS011;26336;44.696;10.622;2023-02-15T13:27:20;58.45;;;30.13;;
40637;SDS011;26336;44.696;10.622;2023-02-15T13:30:28;71.50;;;33.33;;
40637;SDS011;26336;44.696;10.622;2023-02-15T13:33:42;62.90;;;30.13;;
40637;SDS011;26336;44.696;10.622;2023-02-15T13:40:25;69.82;;;33.50;;
40637;SDS011;26336;44.696;10.622;2023-02-15T13:43:50;63.22;;;32.25;;
40637;SDS011;26336;44.696;10.622;2023-02-15T13:50:21;58.17;;;29.83;;
40637;SDS011;26336;44.696;10.622;2023-02-15T14:03:25;53.17;;;26.80;;
40637;SDS011;26336;44.696;10.622;2023-02-15T14:06:36;56.60;;;28.35;;
40637;SDS011;26336;44.696;10.622;2023-02-15T14:10:06;42.15;;;21.92;;
40637;SDS011;26336;44.696;10.622;2023-02-15T14:30:30;62.10;;;30.90;;
40637;SDS011;26336;44.696;10.622;2023-02-15T14:33:38;64.78;;;33.75;;
40637;SDS011;26336;44.696;10.622;2023-02-15T14:36:46;49.47;;;25.08;;
40637;SDS011;26336;44.696;10.622;2023-02-15T14:39:55;52.40;;;27.48;;
40637;SDS011;26336;44.696;10.622;2023-02-15T14:43:53;52.30;;;27.25;;
40637;SDS011;26336;44.696;10.622;2023-02-15T14:47:01;60.78;;;30.48;;
40637;SDS011;26336;44.696;10.622;2023-02-15T14:50:35;65.72;;;30.80;;
40637;SDS011;26336;44.696;10.622;2023-02-15T14:53:42;50.67;;;26.40;;
40637;SDS011;26336;44.696;10.622;2023-02-15T14:57:20;63.42;;;31.38;;
40637;SDS011;26336;44.696;10.622;2023-02-15T15:00:28;59.47;;;30.00;;
40637;SDS011;26336;44.696;10.622;2023-02-15T15:03:43;61.83;;;29.45;;
40637;SDS011;26336;44.696;10.622;2023-02-15T15:26:25;59.80;;;29.75;;
40637;SDS011;26336;44.696;10.622;2023-02-15T15:29:40;67.82;;;31.45;;
40637;SDS011;26336;44.696;10.622;2023-02-15T15:43:19;66.47;;;34.53;;
40637;SDS011;26336;44.696;10.622;2023-02-15T15:50:14;67.20;;;33.55;;
40637;SDS011;26336;44.696;10.622;2023-02-15T15:53:23;64.80;;;32.30;;
40637;SDS011;26336;44.696;10.622;2023-02-15T15:56:30;60.45;;;29.75;;
40637;SDS011;26336;44.696;10.622;2023-02-15T15:59:38;72.50;;;34.70;;
40637;SDS011;26336;44.696;10.622;2023-02-15T16:02:51;69.30;;;34.10;;
40637;SDS011;26336;44.696;10.622;2023-02-15T16:05:57;68.78;;;33.85;;
40637;SDS011;26336;44.696;10.622;2023-02-15T16:09:10;60.85;;;31.20;;
40637;SDS011;26336;44.696;10.622;2023-02-15T16:12:26;64.53;;;31.08;;
40637;SDS011;26336;44.696;10.622;2023-02-15T16:16:19;66.05;;;33.58;;
40637;SDS011;26336;44.696;10.622;2023-02-15T16:19:00;63.70;;;32.30;;
40637;SDS011;26336;44.696;10.622;2023-02-15T16:22:11;64.93;;;31.02;;
40637;SDS011;26336;44.696;10.622;2023-02-15T16:28:33;65.63;;;33.88;;
40637;SDS011;26336;44.696;10.622;2023-02-15T16:31:37;70.10;;;32.22;;
40637;SDS011;26336;44.696;10.622;2023-02-15T16:38:02;63.55;;;33.28;;
40637;SDS011;26336;44.696;10.622;2023-02-15T16:41:06;68.80;;;34.88;;
40637;SDS011;26336;44.696;10.622;2023-02-15T16:44:20;70.53;;;35.30;;
40637;SDS011;26336;44.696;10.622;2023-02-15T16:47:25;64.20;;;32.60;;
40637;SDS011;26336;44.696;10.622;2023-02-15T16:50:33;70.78;;;34.65;;
40637;SDS011;26336;44.696;10.622;2023-02-15T16:53:39;72.95;;;36.22;;
40637;SDS011;26336;44.696;10.622;2023-02-15T16:56:49;65.88;;;33.00;;
40637;SDS011;26336;44.696;10.622;2023-02-15T16:59:55;72.72;;;35.08;;
40637;SDS011;26336;44.696;10.622;2023-02-15T17:09:29;73.63;;;34.75;;
40637;SDS011;26336;44.696;10.622;2023-02-15T17:12:46;65.03;;;32.38;;
40637;SDS011;26336;44.696;10.622;2023-02-15T17:19:14;67.93;;;34.83;;
40637;SDS011;26336;44.696;10.622;2023-02-15T17:22:23;67.32;;;35.00;;
40637;SDS011;26336;44.696;10.622;2023-02-15T17:25:39;68.33;;;33.33;;
40637;SDS011;26336;44.696;10.622;2023-02-15T17:28:46;73.47;;;36.30;;
40637;SDS011;26336;44.696;10.622;2023-02-15T17:31:54;67.23;;;35.13;;
40637;SDS011;26336;44.696;10.622;2023-02-15T17:35:06;65.67;;;32.97;;
40637;SDS011;26336;44.696;10.622;2023-02-15T17:38:25;70.00;;;35.37;;
40637;SDS011;26336;44.696;10.622;2023-02-15T17:41:31;70.05;;;34.28;;
40637;SDS011;26336;44.696;10.622;2023-02-15T17:44:37;74.67;;;37.23;;
40637;SDS011;26336;44.696;10.622;2023-02-15T17:47:41;68.83;;;35.63;;
40637;SDS011;26336;44.696;10.622;2023-02-15T17:50:46;71.50;;;36.67;;
40637;SDS011;26336;44.696;10.622;2023-02-15T17:53:50;70.70;;;35.27;;
40637;SDS011;26336;44.696;10.622;2023-02-15T17:57:13;68.68;;;35.35;;
40637;SDS011;26336;44.696;10.622;2023-02-15T18:00:18;64.60;;;32.43;;
40637;SDS011;26336;44.696;10.622;2023-02-15T18:03:48;72.95;;;35.10;;
40637;SDS011;26336;44.696;10.622;2023-02-15T18:07:14;71.87;;;33.77;;
40637;SDS011;26336;44.696;10.622;2023-02-15T18:10:38;72.50;;;34.60;;
40637;SDS011;26336;44.696;10.622;2023-02-15T18:14:01;72.75;;;35.67;;
40637;SDS011;26336;44.696;10.622;2023-02-15T18:17:06;77.00;;;39.67;;
40637;SDS011;26336;44.696;10.622;2023-02-15T18:23:26;81.90;;;41.87;;
40637;SDS011;26336;44.696;10.622;2023-02-15T18:26:30;80.17;;;40.27;;
40637;SDS011;26336;44.696;10.622;2023-02-15T18:29:34;81.27;;;40.80;;
40637;SDS011;26336;44.696;10.622;2023-02-15T18:32:38;83.27;;;40.67;;
40637;SDS011;26336;44.696;10.622;2023-02-15T18:35:43;86.90;;;43.47;;
40637;SDS011;26336;44.696;10.622;2023-02-15T18:38:48;83.07;;;41.93;;
40637;SDS011;26336;44.696;10.622;2023-02-15T18:41:52;90.67;;;44.73;;
40637;SDS011;26336;44.696;10.622;2023-02-15T18:44:57;81.70;;;42.67;;
40637;SDS011;26336;44.696;10.622;2023-02-15T18:48:02;78.90;;;41.50;;
40637;SDS011;26336;44.696;10.622;2023-02-15T18:51:12;80.27;;;43.53;;
40637;SDS011;26336;44.696;10.622;2023-02-15T18:54:24;86.60;;;42.93;;
40637;SDS011;26336;44.696;10.622;2023-02-15T18:57:30;83.00;;;45.30;;
40637;SDS011;26336;44.696;10.622;2023-02-15T19:00:35;87.80;;;44.73;;
40637;SDS011;26336;44.696;10.622;2023-02-15T19:03:39;84.40;;;46.77;;
40637;SDS011;26336;44.696;10.622;2023-02-15T19:06:44;91.43;;;50.10;;
40637;SDS011;26336;44.696;10.622;2023-02-15T19:09:51;101.83;;;51.10;;
40637;SDS011;26336;44.696;10.622;2023-02-15T19:12:58;95.13;;;49.27;;
40637;SDS011;26336;44.696;10.622;2023-02-15T19:16:09;95.23;;;50.00;;
40637;SDS011;26336;44.696;10.622;2023-02-15T19:19:36;90.00;;;50.33;;
40637;SDS011;26336;44.696;10.622;2023-02-15T19:22:40;101.70;;;51.63;;
40637;SDS011;26336;44.696;10.622;2023-02-15T19:25:45;85.60;;;47.63;;
40637;SDS011;26336;44.696;10.622;2023-02-15T19:28:50;88.63;;;48.87;;
40637;SDS011;26336;44.696;10.622;2023-02-15T19:31:55;88.37;;;47.50;;
40637;SDS011;26336;44.696;10.622;2023-02-15T19:35:00;90.53;;;50.57;;
40637;SDS011;26336;44.696;10.622;2023-02-15T19:38:05;86.50;;;45.27;;
40637;SDS011;26336;44.696;10.622;2023-02-15T19:41:22;89.55;;;47.03;;
40637;SDS011;26336;44.696;10.622;2023-02-15T19:44:31;85.60;;;48.43;;
40637;SDS011;26336;44.696;10.622;2023-02-15T19:47:35;89.27;;;49.60;;
40637;SDS011;26336;44.696;10.622;2023-02-15T19:50:40;92.80;;;48.23;;
40637;SDS011;26336;44.696;10.622;2023-02-15T19:53:48;85.97;;;45.77;;
40637;SDS011;26336;44.696;10.622;2023-02-15T19:56:54;80.43;;;44.87;;
40637;SDS011;26336;44.696;10.622;2023-02-15T19:59:58;84.87;;;44.23;;
40637;SDS011;26336;44.696;10.622;2023-02-15T20:03:07;86.40;;;45.23;;
40637;SDS011;26336;44.696;10.622;2023-02-15T20:06:15;81.27;;;43.17;;
40637;SDS011;26336;44.696;10.622;2023-02-15T20:09:23;82.93;;;42.50;;
40637;SDS011;26336;44.696;10.622;2023-02-15T20:12:29;82.07;;;43.33;;
40637;SDS011;26336;44.696;10.622;2023-02-15T20:15:34;79.20;;;44.40;;
40637;SDS011;26336;44.696;10.622;2023-02-15T20:18:39;82.33;;;43.70;;
40637;SDS011;26336;44.696;10.622;2023-02-15T20:21:47;80.47;;;43.03;;
40637;SDS011;26336;44.696;10.622;2023-02-15T20:24:54;80.10;;;44.53;;
40637;SDS011;26336;44.696;10.622;2023-02-15T20:28:02;80.90;;;44.80;;
40637;SDS011;26336;44.696;10.622;2023-02-15T20:31:08;83.30;;;43.90;;
40637;SDS011;26336;44.696;10.622;2023-02-15T20:34:20;80.90;;;42.63;;
40637;SDS011;26336;44.696;10.622;2023-02-15T20:37:25;75.57;;;42.03;;
40637;SDS011;26336;44.696;10.622;2023-02-15T20:40:32;78.17;;;42.93;;
40637;SDS011;26336;44.696;10.622;2023-02-15T20:43:40;90.10;;;48.53;;
40637;SDS011;26336;44.696;10.622;2023-02-15T20:46:45;86.27;;;47.33;;
40637;SDS011;26336;44.696;10.622;2023-02-15T20:49:49;89.73;;;49.30;;
40637;SDS011;26336;44.696;10.622;2023-02-15T20:52:54;89.87;;;48.17;;
40637;SDS011;26336;44.696;10.622;2023-02-15T20:56:02;87.63;;;47.53;;
40637;SDS011;26336;44.696;10.622;2023-02-15T20:59:40;88.10;;;48.83;;
40637;SDS011;26336;44.696;10.622;2023-02-15T21:02:37;83.33;;;46.70;;
40637;SDS011;26336;44.696;10.622;2023-02-15T21:05:41;85.77;;;45.87;;
40637;SDS011;26336;44.696;10.622;2023-02-15T21:08:50;110.03;;;58.40;;
40637;SDS011;26336;44.696;10.622;2023-02-15T21:11:55;119.13;;;61.97;;
40637;SDS011;26336;44.696;10.622;2023-02-15T21:15:11;143.63;;;71.63;;
40637;SDS011;26336;44.696;10.622;2023-02-15T21:18:33;121.87;;;61.93;;
40637;SDS011;26336;44.696;10.622;2023-02-15T21:21:37;113.60;;;57.47;;
40637;SDS011;26336;44.696;10.622;2023-02-15T21:24:47;99.27;;;52.53;;
40637;SDS011;26336;44.696;10.622;2023-02-15T21:27:57;100.77;;;53.10;;